createdAt,value
2023-08-23T00:02:02.233Z,99.90
2023-08-23T00:04:35.509Z,99.90
2023-08-23T00:07:05.224Z,99.90
2023-08-23T00:09:33.630Z,99.90
2023-08-23T00:12:02.105Z,99.90
2023-08-23T00:14:31.580Z,99.90
2023-08-23T00:17:01.612Z,99.90
2023-08-23T00:19:30.042Z,99.90
2023-08-23T00:21:58.392Z,99.90
2023-08-23T00:24:26.766Z,99.90
2023-08-23T00:26:56.732Z,99.90
2023-08-23T00:29:25.200Z,99.90
2023-08-23T00:31:53.574Z,99.90
2023-08-23T00:34:23.400Z,99.90
2023-08-23T00:36:51.871Z,99.90
2023-08-23T00:39:20.224Z,99.90
2023-08-23T00:41:48.719Z,99.90
2023-08-23T00:44:17.217Z,99.90
2023-08-23T00:46:45.691Z,99.90
2023-08-23T00:49:14.608Z,99.90
2023-08-23T00:51:44.585Z,99.90
2023-08-23T00:54:13.056Z,99.90
2023-08-23T00:56:41.602Z,99.90
2023-08-23T00:59:10.698Z,99.90
2023-08-23T01:01:39.199Z,99.90
2023-08-23T01:04:07.620Z,99.90
2023-08-23T01:06:53.286Z,99.90
2023-08-23T01:09:33.551Z,99.90
2023-08-23T01:12:09.686Z,99.90
2023-08-23T01:14:44.758Z,99.90
2023-08-23T01:17:15.951Z,99.90
2023-08-23T01:19:45.911Z,99.90
2023-08-23T01:22:24.114Z,99.90
2023-08-23T01:24:54.959Z,99.90
2023-08-23T01:27:23.673Z,99.90
2023-08-23T01:29:52.025Z,99.90
2023-08-23T01:32:37.219Z,99.90
2023-08-23T01:35:12.779Z,99.90
2023-08-23T01:37:42.281Z,99.90
2023-08-23T01:40:13.428Z,99.90
2023-08-23T01:42:42.359Z,99.90
2023-08-23T01:45:11.585Z,99.90
2023-08-23T01:47:41.130Z,99.90
2023-08-23T01:50:10.533Z,99.90
2023-08-23T01:52:39.974Z,99.90
2023-08-23T01:55:10.518Z,99.90
2023-08-23T01:57:41.400Z,99.90
2023-08-23T02:00:11.461Z,99.90
2023-08-23T02:02:43.029Z,99.90
2023-08-23T02:05:11.461Z,99.90
2023-08-23T02:07:39.948Z,99.90
2023-08-23T02:10:09.215Z,99.90
2023-08-23T02:12:38.956Z,99.90
2023-08-23T02:15:08.823Z,99.90
2023-08-23T02:17:37.299Z,99.90
2023-08-23T02:20:08.051Z,99.90
2023-08-23T02:22:36.822Z,99.90
2023-08-23T02:25:05.582Z,99.90
2023-08-23T02:27:34.008Z,99.90
2023-08-23T02:30:03.783Z,99.90
2023-08-23T02:32:32.279Z,99.90
2023-08-23T02:35:00.809Z,99.90
2023-08-23T02:37:29.177Z,99.90
2023-08-23T02:39:59.316Z,99.90
2023-08-23T02:42:27.996Z,99.90
2023-08-23T02:44:56.446Z,99.90
2023-08-23T02:47:26.324Z,99.90
2023-08-23T02:49:56.462Z,99.90
2023-08-23T02:52:24.907Z,99.90
2023-08-23T02:54:53.354Z,99.90
2023-08-23T02:57:21.770Z,99.90
2023-08-23T02:59:50.223Z,99.90
2023-08-23T03:02:19.487Z,99.90
2023-08-23T03:04:49.386Z,99.90
2023-08-23T03:07:17.726Z,99.90
2023-08-23T03:09:46.106Z,99.90
2023-08-23T03:12:14.566Z,99.90
2023-08-23T03:14:43.145Z,99.90
2023-08-23T03:17:11.757Z,99.90
2023-08-23T03:19:40.623Z,99.90
2023-08-23T03:22:10.400Z,99.90
2023-08-23T03:24:38.912Z,99.90
2023-08-23T03:27:07.801Z,99.90
2023-08-23T03:29:36.377Z,99.90
2023-08-23T03:32:05.752Z,99.90
2023-08-23T03:34:34.187Z,99.90
2023-08-23T03:37:02.643Z,99.90
2023-08-23T03:39:32.432Z,99.90
2023-08-23T03:42:00.876Z,99.90
2023-08-23T03:44:29.530Z,99.90
2023-08-23T03:46:58.408Z,99.90
2023-08-23T03:49:29.401Z,99.90
2023-08-23T03:51:59.152Z,99.90
2023-08-23T03:54:27.594Z,99.90
2023-08-23T03:56:57.416Z,99.90
2023-08-23T03:59:25.866Z,99.90
2023-08-23T04:01:54.258Z,99.90
2023-08-23T04:04:24.753Z,99.90
2023-08-23T04:06:53.297Z,99.90
2023-08-23T04:09:21.739Z,99.90
2023-08-23T04:11:51.125Z,99.90
2023-08-23T04:14:20.932Z,99.90
2023-08-23T04:16:49.450Z,99.90
2023-08-23T04:19:17.994Z,99.90
2023-08-23T04:21:48.189Z,99.90
2023-08-23T04:24:17.961Z,99.90
2023-08-23T04:26:46.432Z,99.90
2023-08-23T04:29:15.310Z,99.90
2023-08-23T04:31:46.232Z,99.90
2023-08-23T04:34:24.079Z,99.90
2023-08-23T04:36:53.161Z,99.90
2023-08-23T04:39:21.513Z,99.90
2023-08-23T04:41:49.995Z,99.90
2023-08-23T04:44:18.389Z,99.90
2023-08-23T04:46:48.217Z,99.90
2023-08-23T04:49:17.133Z,99.90
2023-08-23T04:51:45.591Z,99.90
2023-08-23T04:54:13.948Z,99.90
2023-08-23T04:56:42.475Z,99.90
2023-08-23T04:59:10.806Z,99.90
2023-08-23T05:01:39.258Z,99.90
2023-08-23T05:04:09.625Z,99.90
2023-08-23T05:06:39.060Z,99.90
2023-08-23T05:09:07.422Z,99.90
2023-08-23T05:11:35.958Z,99.90
2023-08-23T05:14:06.190Z,99.90
2023-08-23T05:16:34.919Z,99.90
2023-08-23T05:19:03.912Z,99.90
2023-08-23T05:21:33.801Z,99.90
2023-08-23T05:24:02.182Z,99.90
2023-08-23T05:26:30.608Z,99.90
2023-08-23T05:28:58.930Z,99.90
2023-08-23T05:31:27.361Z,99.90
2023-08-23T05:33:55.992Z,99.90
2023-08-23T05:36:26.037Z,99.90
2023-08-23T05:38:56.728Z,99.90
2023-08-23T05:41:25.193Z,99.90
2023-08-23T05:43:53.633Z,99.90
2023-08-23T05:46:22.149Z,99.90
2023-08-23T05:48:51.252Z,99.90
2023-08-23T05:51:19.701Z,99.90
2023-08-23T05:53:48.233Z,99.90
2023-08-23T05:56:18.021Z,99.90
2023-08-23T05:58:46.366Z,99.90
2023-08-23T06:01:14.838Z,99.90
2023-08-23T06:03:43.748Z,99.90
2023-08-23T06:06:12.269Z,99.90
2023-08-23T06:08:40.756Z,99.90
2023-08-23T06:11:09.223Z,99.90
2023-08-23T06:13:38.900Z,99.90
2023-08-23T06:16:07.351Z,99.90
2023-08-23T06:18:35.741Z,99.90
2023-08-23T06:21:05.252Z,99.90
2023-08-23T06:23:33.699Z,99.90
2023-08-23T06:26:04.730Z,99.90
2023-08-23T06:28:33.184Z,99.90
2023-08-23T06:31:03.081Z,99.90
2023-08-23T06:33:31.644Z,99.90
2023-08-23T06:36:00.057Z,99.90
2023-08-23T06:38:29.469Z,99.90
2023-08-23T06:40:57.954Z,99.90
2023-08-23T06:43:27.368Z,99.90
2023-08-23T06:45:55.833Z,99.90
2023-08-23T06:48:26.607Z,99.90
2023-08-23T06:50:55.353Z,99.90
2023-08-23T06:53:23.804Z,99.90
2023-08-23T06:55:53.132Z,99.90
2023-08-23T06:58:21.490Z,99.90
2023-08-23T07:00:49.995Z,99.90
2023-08-23T07:03:18.405Z,99.90
2023-08-23T07:05:48.365Z,99.90
2023-08-23T07:08:16.752Z,99.90
2023-08-23T07:10:45.494Z,99.90
2023-08-23T07:13:14.273Z,99.90
2023-08-23T07:15:42.777Z,99.90
2023-08-23T07:18:11.261Z,99.90
2023-08-23T07:20:39.705Z,99.90
2023-08-23T07:23:09.558Z,99.90
2023-08-23T07:25:38.018Z,99.90
2023-08-23T07:28:07.320Z,99.90
2023-08-23T07:30:35.791Z,99.90
2023-08-23T07:33:04.928Z,99.90
2023-08-23T07:35:33.489Z,99.90
2023-08-23T07:38:01.978Z,99.90
2023-08-23T07:40:31.970Z,99.90
2023-08-23T07:43:00.463Z,99.90
2023-08-23T07:45:29.058Z,99.90
2023-08-23T07:47:57.534Z,99.90
2023-08-23T07:50:26.007Z,99.90
2023-08-23T07:52:55.171Z,99.90
2023-08-23T07:55:23.588Z,99.90
2023-08-23T07:57:53.470Z,99.90
2023-08-23T08:00:22.515Z,99.90
2023-08-23T08:02:50.986Z,99.90
2023-08-23T08:05:19.499Z,99.20
2023-08-23T08:08:07.590Z,98.90
2023-08-23T08:10:36.644Z,99.20
2023-08-23T08:13:07.040Z,99.40
2023-08-23T08:15:35.720Z,98.80
2023-08-23T08:18:05.128Z,98.90
2023-08-23T08:20:33.752Z,98.90
2023-08-23T08:23:02.328Z,98.40
2023-08-23T08:25:31.931Z,98.00
2023-08-23T08:28:00.366Z,98.30
2023-08-23T08:30:30.212Z,98.30
2023-08-23T08:32:58.744Z,97.60
2023-08-23T08:35:27.295Z,97.60
2023-08-23T08:37:55.706Z,97.80
2023-08-23T08:40:24.665Z,97.70
2023-08-23T08:42:53.562Z,97.90
2023-08-23T08:45:22.482Z,98.20
2023-08-23T08:47:53.098Z,98.40
2023-08-23T08:50:22.354Z,98.50
2023-08-23T08:52:54.253Z,98.20
2023-08-23T08:55:23.949Z,98.10
2023-08-23T08:57:54.609Z,98.40
2023-08-23T09:00:26.241Z,98.30
2023-08-23T09:02:58.147Z,98.30
2023-08-23T09:05:27.398Z,98.30
2023-08-23T09:07:57.952Z,97.60
2023-08-23T09:10:27.057Z,97.80
2023-08-23T09:12:56.169Z,97.30
2023-08-23T09:15:25.958Z,97.70
2023-08-23T09:17:56.438Z,97.70
2023-08-23T09:20:25.502Z,97.70
2023-08-23T09:22:54.302Z,97.60
2023-08-23T09:25:24.383Z,97.50
2023-08-23T09:27:55.307Z,96.90
2023-08-23T09:30:24.164Z,97.20
2023-08-23T09:32:52.632Z,96.90
2023-08-23T09:35:22.587Z,96.30
2023-08-23T09:37:51.823Z,96.10
2023-08-23T09:40:21.838Z,96.20
2023-08-23T09:42:51.344Z,96.20
2023-08-23T09:45:22.168Z,96.00
2023-08-23T09:47:55.337Z,96.20
2023-08-23T09:50:26.888Z,95.20
2023-08-23T09:53:01.600Z,95.00
2023-08-23T09:55:32.679Z,94.40
2023-08-23T09:58:02.193Z,94.40
2023-08-23T10:00:31.344Z,94.20
2023-08-23T10:03:00.512Z,94.00
2023-08-23T10:05:31.040Z,94.50
2023-08-23T10:07:59.439Z,94.70
2023-08-23T10:10:30.954Z,94.20
2023-08-23T10:13:05.464Z,93.90
2023-08-23T10:15:35.904Z,93.50
2023-08-23T10:18:07.070Z,93.20
2023-08-23T10:20:38.100Z,93.50
2023-08-23T10:23:14.027Z,93.70
2023-08-23T10:25:43.737Z,93.20
2023-08-23T10:28:16.242Z,92.50
2023-08-23T10:30:46.057Z,93.40
2023-08-23T10:33:16.186Z,93.00
2023-08-23T10:35:47.857Z,92.20
2023-08-23T10:38:16.917Z,92.10
2023-08-23T10:40:47.197Z,91.40
2023-08-23T10:43:16.833Z,91.60
2023-08-23T10:45:57.328Z,91.80
2023-08-23T10:48:26.338Z,91.40
2023-08-23T10:50:56.842Z,91.80
2023-08-23T10:53:28.499Z,91.40
2023-08-23T10:55:57.986Z,92.00
2023-08-23T10:58:26.521Z,91.10
2023-08-23T11:00:55.647Z,90.80
2023-08-23T11:03:25.545Z,91.10
2023-08-23T11:05:56.906Z,91.20
2023-08-23T11:08:25.909Z,91.20
2023-08-23T11:10:54.530Z,90.80
2023-08-23T11:13:22.940Z,90.50
2023-08-23T11:15:51.546Z,90.60
2023-08-23T11:18:20.080Z,91.00
2023-08-23T11:20:48.781Z,90.50
2023-08-23T11:23:18.661Z,90.10
2023-08-23T11:25:48.036Z,90.50
2023-08-23T11:28:20.839Z,90.60
2023-08-23T11:30:51.205Z,91.30
2023-08-23T11:33:20.244Z,90.20
2023-08-23T11:35:48.767Z,90.60
2023-08-23T11:38:18.726Z,90.20
2023-08-23T11:40:50.378Z,90.50
2023-08-23T11:43:22.824Z,89.50
2023-08-23T11:45:53.733Z,90.40
2023-08-23T11:48:24.962Z,90.30
2023-08-23T11:50:54.240Z,89.50
2023-08-23T11:53:24.019Z,90.10
2023-08-23T11:55:53.118Z,90.40
2023-08-23T11:58:22.557Z,91.00
2023-08-23T12:00:52.073Z,90.50
2023-08-23T12:03:21.539Z,90.60
2023-08-23T12:05:49.912Z,89.20
2023-08-23T12:08:18.293Z,89.60
2023-08-23T12:10:48.839Z,90.10
2023-08-23T12:13:17.296Z,89.80
2023-08-23T12:15:45.722Z,88.50
2023-08-23T12:18:14.200Z,90.00
2023-08-23T12:20:43.954Z,89.90
2023-08-23T12:23:13.382Z,89.50
2023-08-23T12:25:41.938Z,89.80
2023-08-23T12:28:11.810Z,88.10
2023-08-23T12:30:40.586Z,89.10
2023-08-23T12:33:09.113Z,88.30
2023-08-23T12:35:37.556Z,89.50
2023-08-23T12:38:06.306Z,87.70
2023-08-23T12:40:34.857Z,88.20
2023-08-23T12:43:04.422Z,88.20
2023-08-23T12:45:34.317Z,87.90
2023-08-23T12:48:03.130Z,88.30
2023-08-23T12:50:31.676Z,88.40
2023-08-23T12:53:00.277Z,88.70
2023-08-23T12:55:28.777Z,88.10
2023-08-23T12:57:57.248Z,88.60
2023-08-23T13:00:30.843Z,88.60
2023-08-23T13:03:02.961Z,88.10
2023-08-23T13:05:31.585Z,87.60
2023-08-23T13:08:00.103Z,87.90
2023-08-23T13:10:28.481Z,88.70
2023-08-23T13:12:56.924Z,88.40
2023-08-23T13:15:25.334Z,86.90
2023-08-23T13:17:56.706Z,87.50
2023-08-23T13:20:26.925Z,88.90
2023-08-23T13:22:55.895Z,88.10
2023-08-23T13:25:24.302Z,87.80
2023-08-23T13:27:52.847Z,88.50
2023-08-23T13:30:21.411Z,89.50
2023-08-23T13:32:49.966Z,86.10
2023-08-23T13:35:18.618Z,86.10
2023-08-23T13:37:48.774Z,86.60
2023-08-23T13:40:17.558Z,86.90
2023-08-23T13:42:46.078Z,86.40
2023-08-23T13:45:14.484Z,85.00
2023-08-23T13:47:43.084Z,86.10
2023-08-23T13:50:11.881Z,86.80
2023-08-23T13:52:40.345Z,85.90
2023-08-23T13:55:11.154Z,85.60
2023-08-23T13:57:39.651Z,87.40
2023-08-23T14:00:09.772Z,85.40
2023-08-23T14:02:39.413Z,85.20
2023-08-23T14:05:08.720Z,85.50
2023-08-23T14:07:37.345Z,85.90
2023-08-23T14:10:06.666Z,86.50
2023-08-23T14:12:37.466Z,83.90
2023-08-23T14:15:06.917Z,85.00
2023-08-23T14:17:35.305Z,84.50
2023-08-23T14:20:06.731Z,84.30
2023-08-23T14:22:35.157Z,85.30
2023-08-23T14:25:04.883Z,84.50
2023-08-23T14:27:33.862Z,86.40
2023-08-23T14:30:03.816Z,84.60
2023-08-23T14:32:32.489Z,85.90
2023-08-23T14:35:00.888Z,85.20
2023-08-23T14:37:29.305Z,86.00
2023-08-23T14:39:57.764Z,84.00
2023-08-23T14:42:28.388Z,84.50
2023-08-23T14:44:57.593Z,85.10
2023-08-23T14:47:27.482Z,86.00
2023-08-23T14:49:55.882Z,85.70
2023-08-23T14:52:24.261Z,85.00
2023-08-23T14:54:52.841Z,86.10
2023-08-23T14:57:22.460Z,83.70
2023-08-23T14:59:50.945Z,85.00
2023-08-23T15:02:19.662Z,84.10
2023-08-23T15:04:49.497Z,85.00
2023-08-23T15:07:19.665Z,84.30
2023-08-23T15:09:49.970Z,84.50
2023-08-23T15:12:18.494Z,84.90
2023-08-23T15:14:47.052Z,85.10
2023-08-23T15:17:15.815Z,85.00
2023-08-23T15:19:46.334Z,84.90
2023-08-23T15:22:16.148Z,86.30
2023-08-23T15:24:44.848Z,85.10
2023-08-23T15:27:13.280Z,87.30
2023-08-23T15:29:49.457Z,85.80
2023-08-23T15:32:29.816Z,85.90
2023-08-23T15:34:59.529Z,86.30
2023-08-23T15:37:29.373Z,86.40
2023-08-23T15:39:57.818Z,87.40
2023-08-23T15:42:26.312Z,86.50
2023-08-23T15:44:54.931Z,86.30
2023-08-23T15:47:23.464Z,86.80
2023-08-23T15:49:51.950Z,86.50
2023-08-23T15:52:20.483Z,86.20
2023-08-23T15:54:51.920Z,86.80
2023-08-23T15:57:21.448Z,87.60
2023-08-23T15:59:50.068Z,88.40
2023-08-23T16:02:18.755Z,88.20
2023-08-23T16:04:47.340Z,87.90
2023-08-23T16:07:15.784Z,88.20
2023-08-23T16:09:44.214Z,88.40
2023-08-23T16:12:14.042Z,88.00
2023-08-23T16:14:42.429Z,88.70
2023-08-23T16:17:10.864Z,89.00
2023-08-23T16:19:39.713Z,87.30
2023-08-23T16:22:08.134Z,88.90
2023-08-23T16:24:38.805Z,89.20
2023-08-23T16:27:07.386Z,88.50
2023-08-23T16:29:37.232Z,88.30
2023-08-23T16:32:06.878Z,88.50
2023-08-23T16:34:35.354Z,87.80
2023-08-23T16:37:04.264Z,88.40
2023-08-23T16:39:32.801Z,89.00
2023-08-23T16:42:01.192Z,87.70
2023-08-23T16:44:30.073Z,87.80
2023-08-23T16:46:59.857Z,88.20
2023-08-23T16:49:28.450Z,89.30
2023-08-23T16:51:56.826Z,89.60
2023-08-23T16:54:25.417Z,88.50
2023-08-23T16:56:53.827Z,89.30
2023-08-23T16:59:22.174Z,90.00
2023-08-23T17:01:50.628Z,89.20
2023-08-23T17:04:21.763Z,89.50
2023-08-23T17:06:50.199Z,90.30
2023-08-23T17:09:18.680Z,89.80
2023-08-23T17:11:47.132Z,89.80
2023-08-23T17:14:15.566Z,89.60
2023-08-23T17:16:43.965Z,90.10
2023-08-23T17:19:12.461Z,89.80
2023-08-23T17:21:42.262Z,90.20
2023-08-23T17:24:10.686Z,90.30
2023-08-23T17:26:39.085Z,90.10
2023-08-23T17:29:07.457Z,90.10
2023-08-23T17:31:35.846Z,90.10
2023-08-23T17:34:05.120Z,90.20
2023-08-23T17:36:35.560Z,90.20
2023-08-23T17:39:05.639Z,90.30
2023-08-23T17:41:34.067Z,90.20
2023-08-23T17:44:02.452Z,90.30
2023-08-23T17:46:38.231Z,90.40
2023-08-23T17:49:07.437Z,91.30
2023-08-23T17:51:36.979Z,91.20
2023-08-23T17:54:08.986Z,90.70
2023-08-23T17:56:37.580Z,91.10
2023-08-23T17:59:06.965Z,90.70
2023-08-23T18:01:35.391Z,90.70
2023-08-23T18:04:03.875Z,91.00
2023-08-23T18:06:33.006Z,91.50
2023-08-23T18:09:01.402Z,92.10
2023-08-23T18:11:31.849Z,92.30
2023-08-23T18:14:00.549Z,92.60
2023-08-23T18:16:29.059Z,93.20
2023-08-23T18:18:57.460Z,93.00
2023-08-23T18:21:27.381Z,93.20
2023-08-23T18:23:56.536Z,93.40
2023-08-23T18:26:25.106Z,93.10
2023-08-23T18:28:56.446Z,93.00
2023-08-23T18:31:25.084Z,93.30
2023-08-23T18:33:53.468Z,93.30
2023-08-23T18:36:21.963Z,93.40
2023-08-23T18:38:50.325Z,93.40
2023-08-23T18:41:18.708Z,93.70
2023-08-23T18:43:47.126Z,93.80
2023-08-23T18:46:16.962Z,94.00
2023-08-23T18:48:45.631Z,94.10
2023-08-23T18:51:14.093Z,94.50
2023-08-23T18:53:43.630Z,94.60
2023-08-23T18:56:12.194Z,94.80
2023-08-23T18:58:40.625Z,94.60
2023-08-23T19:01:09.031Z,94.80
2023-08-23T19:03:38.973Z,94.90
2023-08-23T19:06:07.497Z,94.90
2023-08-23T19:08:35.968Z,94.90
2023-08-23T19:11:04.330Z,94.80
2023-08-23T19:13:35.008Z,94.90
2023-08-23T19:16:03.437Z,95.20
2023-08-23T19:18:33.830Z,95.30
2023-08-23T19:21:04.909Z,95.50
2023-08-23T19:23:33.471Z,95.70
2023-08-23T19:26:01.873Z,96.00
2023-08-23T19:28:30.307Z,96.20
2023-08-23T19:30:58.712Z,96.30
2023-08-23T19:33:27.199Z,96.50
2023-08-23T19:35:56.701Z,96.70
2023-08-23T19:38:26.468Z,96.80
2023-08-23T19:40:56.958Z,96.90
2023-08-23T19:43:26.319Z,96.90
2023-08-23T19:45:55.459Z,97.20
2023-08-23T19:48:31.460Z,97.20
2023-08-23T19:51:03.705Z,97.50
2023-08-23T19:53:33.840Z,97.60
2023-08-23T19:56:05.610Z,97.70
2023-08-23T19:58:35.138Z,97.70
2023-08-23T20:01:04.165Z,97.90
2023-08-23T20:03:32.964Z,98.10
2023-08-23T20:06:01.602Z,98.00
2023-08-23T20:08:32.061Z,98.00
2023-08-23T20:11:04.005Z,98.20
2023-08-23T20:13:32.631Z,98.40
2023-08-23T20:16:02.310Z,98.60
2023-08-23T20:18:30.733Z,98.70
2023-08-23T20:20:59.192Z,98.70
2023-08-23T20:23:28.796Z,98.80
2023-08-23T20:25:57.287Z,98.90
2023-08-23T20:28:27.159Z,99.00
2023-08-23T20:30:56.896Z,99.00
2023-08-23T20:33:25.436Z,99.00
2023-08-23T20:35:53.976Z,99.10
2023-08-23T20:38:22.407Z,99.00
2023-08-23T20:40:50.914Z,99.10
2023-08-23T20:43:19.261Z,99.30
2023-08-23T20:45:49.030Z,99.50
2023-08-23T20:48:18.549Z,99.60
2023-08-23T20:50:47.063Z,99.60
2023-08-23T20:53:15.446Z,99.50
2023-08-23T20:55:43.795Z,99.60
2023-08-23T20:58:13.231Z,99.70
2023-08-23T21:00:42.650Z,99.70
2023-08-23T21:03:12.444Z,99.90
2023-08-23T21:05:43.506Z,99.90
2023-08-23T21:08:12.118Z,99.90
2023-08-23T21:10:41.365Z,99.90
2023-08-23T21:13:10.072Z,99.90
2023-08-23T21:15:44.328Z,99.90
2023-08-23T21:18:16.311Z,99.90
2023-08-23T21:20:45.140Z,99.90
2023-08-23T21:23:13.821Z,99.90
2023-08-23T21:25:42.233Z,99.90
2023-08-23T21:28:10.713Z,99.90
2023-08-23T21:30:40.149Z,99.90
2023-08-23T21:33:08.700Z,99.90
2023-08-23T21:35:39.354Z,99.90
2023-08-23T21:38:07.888Z,99.90
2023-08-23T21:40:36.338Z,99.90
2023-08-23T21:43:05.027Z,99.90
2023-08-23T21:45:34.480Z,99.90
2023-08-23T21:48:04.024Z,99.90
2023-08-23T21:50:33.924Z,99.90
2023-08-23T21:53:03.724Z,99.90
2023-08-23T21:55:32.811Z,99.90
2023-08-23T21:58:01.211Z,99.90
2023-08-23T22:00:29.943Z,99.90
2023-08-23T22:02:58.536Z,99.90
2023-08-23T22:05:27.721Z,99.90
2023-08-23T22:07:56.863Z,99.90
2023-08-23T22:10:26.788Z,99.90
2023-08-23T22:12:55.161Z,99.90
2023-08-23T22:15:23.542Z,99.90
2023-08-23T22:17:52.183Z,99.90
2023-08-23T22:20:21.139Z,99.90
2023-08-23T22:22:49.573Z,99.90
2023-08-23T22:25:18.364Z,99.90
2023-08-23T22:27:48.298Z,99.90
2023-08-23T22:30:16.998Z,99.90
2023-08-23T22:32:45.479Z,99.90
2023-08-23T22:35:13.980Z,99.90
2023-08-23T22:37:42.285Z,99.90
2023-08-23T22:40:11.214Z,99.90
2023-08-23T22:42:39.500Z,99.90
2023-08-23T22:45:10.863Z,99.90
2023-08-23T22:47:39.348Z,99.90
2023-08-23T22:50:09.579Z,99.90
2023-08-23T22:52:37.966Z,99.90
2023-08-23T22:55:07.506Z,99.90
2023-08-23T22:57:41.991Z,99.90
2023-08-23T23:00:14.090Z,99.90
2023-08-23T23:02:42.956Z,99.90
2023-08-23T23:05:13.012Z,99.90
2023-08-23T23:07:41.633Z,99.90
2023-08-23T23:10:10.611Z,99.90
2023-08-23T23:12:39.935Z,99.90
2023-08-23T23:15:09.293Z,99.90
2023-08-23T23:17:40.667Z,99.90
2023-08-23T23:20:13.352Z,99.90
2023-08-23T23:22:42.326Z,99.90
2023-08-23T23:25:11.472Z,99.90
2023-08-23T23:27:39.943Z,99.90
2023-08-23T23:30:09.256Z,99.90
2023-08-23T23:32:39.054Z,99.90
2023-08-23T23:35:07.817Z,99.90
2023-08-23T23:37:37.277Z,99.90
2023-08-23T23:40:10.113Z,99.90
2023-08-23T23:42:38.824Z,99.90
2023-08-23T23:45:08.253Z,99.90
2023-08-23T23:47:38.104Z,99.90
2023-08-23T23:50:08.792Z,99.90
2023-08-23T23:52:37.198Z,99.90
2023-08-23T23:55:06.685Z,99.90
2023-08-23T23:57:35.153Z,99.90
